sensor_id;sensor_type;location;lat;lon;timestamp;temperature;humidity
21246;DHT22;10781;50.928;4.440;2023-02-03T00:02:03;10.30;99.90
21246;DHT22;10781;50.928;4.440;2023-02-03T00:04:28;10.30;99.90
21246;DHT22;10781;50.928;4.440;2023-02-03T00:06:54;10.40;99.90
21246;DHT22;10781;50.928;4.440;2023-02-03T00:09:20;10.40;99.90
21246;DHT22;10781;50.928;4.440;2023-02-03T00:11:46;10.50;99.90
21246;DHT22;10781;50.928;4.440;2023-02-03T00:14:11;10.60;99.90
21246;DHT22;10781;50.928;4.440;2023-02-03T00:16:37;10.50;99.90
21246;DHT22;10781;50.928;4.440;2023-02-03T00:19:02;10.40;99.90
21246;DHT22;10781;50.928;4.440;2023-02-03T00:21:28;10.40;99.90
21246;DHT22;10781;50.928;4.440;2023-02-03T00:23:54;10.40;99.90
21246;DHT22;10781;50.928;4.440;2023-02-03T00:26:19;10.40;99.90
21246;DHT22;10781;50.928;4.440;2023-02-03T00:28:45;10.40;99.90
21246;DHT22;10781;50.928;4.440;2023-02-03T00:31:23;10.40;99.90
21246;DHT22;10781;50.928;4.440;2023-02-03T00:33:54;10.40;99.90
21246;DHT22;10781;50.928;4.440;2023-02-03T00:36:20;10.50;99.90
21246;DHT22;10781;50.928;4.440;2023-02-03T00:38:46;10.40;99.90
21246;DHT22;10781;50.928;4.440;2023-02-03T00:41:13;10.40;99.90
21246;DHT22;10781;50.928;4.440;2023-02-03T00:43:39;10.40;99.90
21246;DHT22;10781;50.928;4.440;2023-02-03T00:46:04;10.50;99.90
21246;DHT22;10781;50.928;4.440;2023-02-03T00:48:30;10.50;99.90
21246;DHT22;10781;50.928;4.440;2023-02-03T00:50:56;10.50;99.90
21246;DHT22;10781;50.928;4.440;2023-02-03T00:53:21;10.50;99.90
21246;DHT22;10781;50.928;4.440;2023-02-03T00:55:47;10.40;99.90
21246;DHT22;10781;50.928;4.440;2023-02-03T00:58:12;10.40;99.90
21246;DHT22;10781;50.928;4.440;2023-02-03T01:00:38;10.50;99.90
21246;DHT22;10781;50.928;4.440;2023-02-03T01:03:04;10.30;99.90
21246;DHT22;10781;50.928;4.440;2023-02-03T01:05:30;10.30;99.90
21246;DHT22;10781;50.928;4.440;2023-02-03T01:07:55;10.40;99.90
21246;DHT22;10781;50.928;4.440;2023-02-03T01:10:21;10.40;99.90
21246;DHT22;10781;50.928;4.440;2023-02-03T01:12:47;10.30;99.90
21246;DHT22;10781;50.928;4.440;2023-02-03T01:15:12;10.30;99.90
21246;DHT22;10781;50.928;4.440;2023-02-03T01:17:38;10.40;99.90
21246;DHT22;10781;50.928;4.440;2023-02-03T01:20:04;10.40;99.90
21246;DHT22;10781;50.928;4.440;2023-02-03T01:22:30;10.40;99.90
21246;DHT22;10781;50.928;4.440;2023-02-03T01:24:56;10.40;99.90
21246;DHT22;10781;50.928;4.440;2023-02-03T01:27:22;10.40;99.90
21246;DHT22;10781;50.928;4.440;2023-02-03T01:29:47;10.50;99.90
21246;DHT22;10781;50.928;4.440;2023-02-03T01:32:13;10.40;99.90
21246;DHT22;10781;50.928;4.440;2023-02-03T01:34:39;10.40;99.90
21246;DHT22;10781;50.928;4.440;2023-02-03T01:37:04;10.40;99.90
21246;DHT22;10781;50.928;4.440;2023-02-03T01:39:30;10.40;99.90
21246;DHT22;10781;50.928;4.440;2023-02-03T01:41:56;10.40;99.90
21246;DHT22;10781;50.928;4.440;2023-02-03T01:47:01;10.40;99.90
21246;DHT22;10781;50.928;4.440;2023-02-03T01:49:34;10.30;99.90
21246;DHT22;10781;50.928;4.440;2023-02-03T01:52:02;10.40;99.90
21246;DHT22;10781;50.928;4.440;2023-02-03T01:54:31;10.40;99.90
21246;DHT22;10781;50.928;4.440;2023-02-03T01:57:00;10.40;99.90
21246;DHT22;10781;50.928;4.440;2023-02-03T01:59:28;10.30;99.90
21246;DHT22;10781;50.928;4.440;2023-02-03T02:01:56;10.40;99.90
21246;DHT22;10781;50.928;4.440;2023-02-03T02:04:27;10.40;99.90
21246;DHT22;10781;50.928;4.440;2023-02-03T02:06:56;10.30;99.90
21246;DHT22;10781;50.928;4.440;2023-02-03T02:09:23;10.40;99.90
21246;DHT22;10781;50.928;4.440;2023-02-03T02:11:48;10.40;99.90
21246;DHT22;10781;50.928;4.440;2023-02-03T02:14:14;10.40;99.90
21246;DHT22;10781;50.928;4.440;2023-02-03T02:17:05;10.30;99.90
21246;DHT22;10781;50.928;4.440;2023-02-03T02:23:06;10.30;99.90
21246;DHT22;10781;50.928;4.440;2023-02-03T02:28:52;10.30;99.90
21246;DHT22;10781;50.928;4.440;2023-02-03T02:34:23;10.40;99.90
21246;DHT22;10781;50.928;4.440;2023-02-03T02:37:06;10.40;99.90
21246;DHT22;10781;50.928;4.440;2023-02-03T02:42:38;10.30;99.90
21246;DHT22;10781;50.928;4.440;2023-02-03T02:45:13;10.20;99.90
21246;DHT22;10781;50.928;4.440;2023-02-03T02:47:39;10.30;99.90
21246;DHT22;10781;50.928;4.440;2023-02-03T02:50:18;10.40;99.90
21246;DHT22;10781;50.928;4.440;2023-02-03T02:52:47;10.30;99.90
21246;DHT22;10781;50.928;4.440;2023-02-03T02:55:22;10.30;99.90
21246;DHT22;10781;50.928;4.440;2023-02-03T02:57:50;10.30;99.90
21246;DHT22;10781;50.928;4.440;2023-02-03T03:00:16;10.40;99.90
21246;DHT22;10781;50.928;4.440;2023-02-03T03:02:42;10.50;99.90
21246;DHT22;10781;50.928;4.440;2023-02-03T03:05:09;10.40;99.90
21246;DHT22;10781;50.928;4.440;2023-02-03T03:07:47;10.40;99.90
21246;DHT22;10781;50.928;4.440;2023-02-03T03:10:18;10.30;99.90
21246;DHT22;10781;50.928;4.440;2023-02-03T03:12:52;10.30;99.90
21246;DHT22;10781;50.928;4.440;2023-02-03T03:15:21;10.40;99.90
21246;DHT22;10781;50.928;4.440;2023-02-03T03:18:00;10.30;99.90
21246;DHT22;10781;50.928;4.440;2023-02-03T03:20:28;10.30;99.90
21246;DHT22;10781;50.928;4.440;2023-02-03T03:22:59;10.30;99.90
21246;DHT22;10781;50.928;4.440;2023-02-03T03:25:33;10.30;99.90
21246;DHT22;10781;50.928;4.440;2023-02-03T03:28:06;10.30;99.90
21246;DHT22;10781;50.928;4.440;2023-02-03T03:30:34;10.40;99.90
21246;DHT22;10781;50.928;4.440;2023-02-03T03:33:01;10.30;99.90
21246;DHT22;10781;50.928;4.440;2023-02-03T03:35:40;10.30;99.90
21246;DHT22;10781;50.928;4.440;2023-02-03T03:38:13;10.30;99.90
21246;DHT22;10781;50.928;4.440;2023-02-03T03:40:44;10.30;99.90
21246;DHT22;10781;50.928;4.440;2023-02-03T03:43:19;10.40;99.90
21246;DHT22;10781;50.928;4.440;2023-02-03T03:45:57;10.40;99.90
21246;DHT22;10781;50.928;4.440;2023-02-03T03:48:35;10.50;99.90
21246;DHT22;10781;50.928;4.440;2023-02-03T03:51:10;10.60;99.90
21246;DHT22;10781;50.928;4.440;2023-02-03T03:53:39;10.40;99.90
21246;DHT22;10781;50.928;4.440;2023-02-03T03:56:07;10.40;99.90
21246;DHT22;10781;50.928;4.440;2023-02-03T03:58:36;10.30;99.90
21246;DHT22;10781;50.928;4.440;2023-02-03T04:01:05;10.30;99.90
21246;DHT22;10781;50.928;4.440;2023-02-03T04:03:38;10.30;99.90
21246;DHT22;10781;50.928;4.440;2023-02-03T04:06:06;10.30;99.90
21246;DHT22;10781;50.928;4.440;2023-02-03T04:08:31;10.40;99.90
21246;DHT22;10781;50.928;4.440;2023-02-03T04:10:57;10.40;99.90
21246;DHT22;10781;50.928;4.440;2023-02-03T04:13:23;10.30;99.90
21246;DHT22;10781;50.928;4.440;2023-02-03T04:15:48;10.30;99.90
21246;DHT22;10781;50.928;4.440;2023-02-03T04:18:15;10.20;99.90
21246;DHT22;10781;50.928;4.440;2023-02-03T04:20:41;10.20;99.90
21246;DHT22;10781;50.928;4.440;2023-02-03T04:23:07;10.20;99.90
21246;DHT22;10781;50.928;4.440;2023-02-03T04:25:33;10.30;99.90
21246;DHT22;10781;50.928;4.440;2023-02-03T04:27:59;10.30;99.90
21246;DHT22;10781;50.928;4.440;2023-02-03T04:30:25;10.40;99.90
21246;DHT22;10781;50.928;4.440;2023-02-03T04:32:51;10.30;99.90
21246;DHT22;10781;50.928;4.440;2023-02-03T04:35:18;10.30;99.90
21246;DHT22;10781;50.928;4.440;2023-02-03T04:37:43;10.40;99.90
21246;DHT22;10781;50.928;4.440;2023-02-03T04:40:10;10.50;99.90
21246;DHT22;10781;50.928;4.440;2023-02-03T04:42:37;10.30;99.90
21246;DHT22;10781;50.928;4.440;2023-02-03T04:45:04;10.30;99.90
21246;DHT22;10781;50.928;4.440;2023-02-03T04:47:29;10.40;99.90
21246;DHT22;10781;50.928;4.440;2023-02-03T04:49:55;10.30;99.90
21246;DHT22;10781;50.928;4.440;2023-02-03T04:52:21;10.30;99.90
21246;DHT22;10781;50.928;4.440;2023-02-03T04:54:46;10.30;99.90
21246;DHT22;10781;50.928;4.440;2023-02-03T04:57:12;10.40;99.90
21246;DHT22;10781;50.928;4.440;2023-02-03T04:59:38;10.40;99.90
21246;DHT22;10781;50.928;4.440;2023-02-03T05:02:03;10.40;99.90
21246;DHT22;10781;50.928;4.440;2023-02-03T05:04:30;10.40;99.90
21246;DHT22;10781;50.928;4.440;2023-02-03T05:06:55;10.40;99.90
21246;DHT22;10781;50.928;4.440;2023-02-03T05:09:25;10.40;99.90
21246;DHT22;10781;50.928;4.440;2023-02-03T05:11:51;10.30;99.90
21246;DHT22;10781;50.928;4.440;2023-02-03T05:14:17;10.20;99.90
21246;DHT22;10781;50.928;4.440;2023-02-03T05:16:43;10.20;99.90
21246;DHT22;10781;50.928;4.440;2023-02-03T05:19:08;10.30;99.90
21246;DHT22;10781;50.928;4.440;2023-02-03T05:21:34;10.40;99.90
21246;DHT22;10781;50.928;4.440;2023-02-03T05:24:00;10.40;99.90
21246;DHT22;10781;50.928;4.440;2023-02-03T05:26:27;10.40;99.90
21246;DHT22;10781;50.928;4.440;2023-02-03T05:28:53;10.40;99.90
21246;DHT22;10781;50.928;4.440;2023-02-03T05:31:18;10.40;99.90
21246;DHT22;10781;50.928;4.440;2023-02-03T05:33:44;10.40;99.90
21246;DHT22;10781;50.928;4.440;2023-02-03T05:36:10;10.40;99.90
21246;DHT22;10781;50.928;4.440;2023-02-03T05:38:35;10.40;99.90
21246;DHT22;10781;50.928;4.440;2023-02-03T05:41:01;10.40;99.90
21246;DHT22;10781;50.928;4.440;2023-02-03T05:43:45;10.40;99.90
21246;DHT22;10781;50.928;4.440;2023-02-03T05:46:11;10.30;99.90
21246;DHT22;10781;50.928;4.440;2023-02-03T05:48:36;10.30;99.90
21246;DHT22;10781;50.928;4.440;2023-02-03T05:51:02;10.40;99.90
21246;DHT22;10781;50.928;4.440;2023-02-03T05:53:28;10.40;99.90
21246;DHT22;10781;50.928;4.440;2023-02-03T05:55:53;10.40;99.90
21246;DHT22;10781;50.928;4.440;2023-02-03T05:58:19;10.40;99.90
21246;DHT22;10781;50.928;4.440;2023-02-03T06:00:45;10.50;99.90
21246;DHT22;10781;50.928;4.440;2023-02-03T06:03:11;10.40;99.90
21246;DHT22;10781;50.928;4.440;2023-02-03T06:05:37;10.50;99.90
21246;DHT22;10781;50.928;4.440;2023-02-03T06:08:06;10.40;99.90
21246;DHT22;10781;50.928;4.440;2023-02-03T06:10:31;10.30;99.90
21246;DHT22;10781;50.928;4.440;2023-02-03T06:12:57;10.30;99.90
21246;DHT22;10781;50.928;4.440;2023-02-03T06:15:23;10.30;99.90
21246;DHT22;10781;50.928;4.440;2023-02-03T06:17:48;10.40;99.90
21246;DHT22;10781;50.928;4.440;2023-02-03T06:20:16;10.30;99.90
21246;DHT22;10781;50.928;4.440;2023-02-03T06:22:43;10.40;99.90
21246;DHT22;10781;50.928;4.440;2023-02-03T06:25:09;10.40;99.90
21246;DHT22;10781;50.928;4.440;2023-02-03T06:27:35;10.30;99.90
21246;DHT22;10781;50.928;4.440;2023-02-03T06:30:01;10.30;99.90
21246;DHT22;10781;50.928;4.440;2023-02-03T06:32:27;10.30;99.90
21246;DHT22;10781;50.928;4.440;2023-02-03T06:34:53;10.30;99.90
21246;DHT22;10781;50.928;4.440;2023-02-03T06:37:19;10.30;99.90
21246;DHT22;10781;50.928;4.440;2023-02-03T06:39:44;10.40;99.90
21246;DHT22;10781;50.928;4.440;2023-02-03T06:42:10;10.40;99.90
21246;DHT22;10781;50.928;4.440;2023-02-03T06:44:35;10.50;99.90
21246;DHT22;10781;50.928;4.440;2023-02-03T06:47:01;10.40;99.90
21246;DHT22;10781;50.928;4.440;2023-02-03T06:49:28;10.40;99.90
21246;DHT22;10781;50.928;4.440;2023-02-03T06:51:54;10.50;99.90
21246;DHT22;10781;50.928;4.440;2023-02-03T06:54:19;10.50;99.90
21246;DHT22;10781;50.928;4.440;2023-02-03T06:56:45;10.60;99.90
21246;DHT22;10781;50.928;4.440;2023-02-03T06:59:11;10.50;99.90
21246;DHT22;10781;50.928;4.440;2023-02-03T07:01:37;10.40;99.90
21246;DHT22;10781;50.928;4.440;2023-02-03T07:04:03;10.30;99.90
21246;DHT22;10781;50.928;4.440;2023-02-03T07:06:29;10.40;99.90
21246;DHT22;10781;50.928;4.440;2023-02-03T07:08:57;10.40;99.90
21246;DHT22;10781;50.928;4.440;2023-02-03T07:11:24;10.40;99.90
21246;DHT22;10781;50.928;4.440;2023-02-03T07:13:50;10.30;99.90
21246;DHT22;10781;50.928;4.440;2023-02-03T07:16:16;10.40;99.90
21246;DHT22;10781;50.928;4.440;2023-02-03T07:18:42;10.40;99.90
21246;DHT22;10781;50.928;4.440;2023-02-03T07:21:08;10.30;99.90
21246;DHT22;10781;50.928;4.440;2023-02-03T07:23:33;10.40;99.90
21246;DHT22;10781;50.928;4.440;2023-02-03T07:26:00;10.40;99.90
21246;DHT22;10781;50.928;4.440;2023-02-03T07:28:27;10.30;99.90
21246;DHT22;10781;50.928;4.440;2023-02-03T07:30:52;10.40;99.90
21246;DHT22;10781;50.928;4.440;2023-02-03T07:33:18;10.30;99.90
21246;DHT22;10781;50.928;4.440;2023-02-03T07:35:53;10.40;99.90
21246;DHT22;10781;50.928;4.440;2023-02-03T07:38:20;10.40;99.90
21246;DHT22;10781;50.928;4.440;2023-02-03T07:40:46;10.50;99.90
21246;DHT22;10781;50.928;4.440;2023-02-03T07:43:11;10.40;99.90
21246;DHT22;10781;50.928;4.440;2023-02-03T07:45:37;10.40;99.90
21246;DHT22;10781;50.928;4.440;2023-02-03T07:48:03;10.40;99.90
21246;DHT22;10781;50.928;4.440;2023-02-03T07:50:28;10.50;99.90
21246;DHT22;10781;50.928;4.440;2023-02-03T07:52:54;10.50;99.90
21246;DHT22;10781;50.928;4.440;2023-02-03T07:55:21;10.50;99.90
21246;DHT22;10781;50.928;4.440;2023-02-03T07:57:47;10.50;99.90
21246;DHT22;10781;50.928;4.440;2023-02-03T08:00:14;10.50;99.90
21246;DHT22;10781;50.928;4.440;2023-02-03T08:02:43;10.40;99.90
21246;DHT22;10781;50.928;4.440;2023-02-03T08:05:09;10.50;99.90
21246;DHT22;10781;50.928;4.440;2023-02-03T08:07:35;10.50;99.90
21246;DHT22;10781;50.928;4.440;2023-02-03T08:10:01;10.50;99.90
21246;DHT22;10781;50.928;4.440;2023-02-03T08:12:27;10.60;99.90
21246;DHT22;10781;50.928;4.440;2023-02-03T08:14:52;10.60;99.90
21246;DHT22;10781;50.928;4.440;2023-02-03T08:17:18;10.50;99.90
21246;DHT22;10781;50.928;4.440;2023-02-03T08:19:44;10.50;99.90
21246;DHT22;10781;50.928;4.440;2023-02-03T08:22:09;10.60;99.90
21246;DHT22;10781;50.928;4.440;2023-02-03T08:24:46;10.60;99.90
21246;DHT22;10781;50.928;4.440;2023-02-03T08:27:14;10.60;99.90
21246;DHT22;10781;50.928;4.440;2023-02-03T08:29:39;10.60;99.90
21246;DHT22;10781;50.928;4.440;2023-02-03T08:32:09;10.60;99.90
21246;DHT22;10781;50.928;4.440;2023-02-03T08:34:34;10.60;99.90
21246;DHT22;10781;50.928;4.440;2023-02-03T08:37:00;10.60;99.90
21246;DHT22;10781;50.928;4.440;2023-02-03T08:39:26;10.70;99.90
21246;DHT22;10781;50.928;4.440;2023-02-03T08:41:52;10.60;99.90
21246;DHT22;10781;50.928;4.440;2023-02-03T08:44:17;10.70;99.90
21246;DHT22;10781;50.928;4.440;2023-02-03T08:46:47;10.70;99.90
21246;DHT22;10781;50.928;4.440;2023-02-03T08:49:13;10.80;99.90
21246;DHT22;10781;50.928;4.440;2023-02-03T08:51:39;10.80;99.90
21246;DHT22;10781;50.928;4.440;2023-02-03T08:54:05;10.80;99.90
21246;DHT22;10781;50.928;4.440;2023-02-03T08:56:31;10.80;99.90
21246;DHT22;10781;50.928;4.440;2023-02-03T08:58:58;10.80;99.90
21246;DHT22;10781;50.928;4.440;2023-02-03T09:01:24;10.90;99.90
21246;DHT22;10781;50.928;4.440;2023-02-03T09:03:50;10.80;99.90
21246;DHT22;10781;50.928;4.440;2023-02-03T09:06:16;10.80;99.90
21246;DHT22;10781;50.928;4.440;2023-02-03T09:08:42;10.80;99.90
21246;DHT22;10781;50.928;4.440;2023-02-03T09:11:13;10.80;99.90
21246;DHT22;10781;50.928;4.440;2023-02-03T09:13:39;10.90;99.90
21246;DHT22;10781;50.928;4.440;2023-02-03T09:16:09;10.90;99.90
21246;DHT22;10781;50.928;4.440;2023-02-03T09:18:35;11.00;99.90
21246;DHT22;10781;50.928;4.440;2023-02-03T09:21:08;11.10;99.90
21246;DHT22;10781;50.928;4.440;2023-02-03T09:23:36;11.10;99.90
21246;DHT22;10781;50.928;4.440;2023-02-03T09:26:07;11.10;99.90
21246;DHT22;10781;50.928;4.440;2023-02-03T09:28:33;11.00;99.90
21246;DHT22;10781;50.928;4.440;2023-02-03T09:31:03;11.00;99.90
21246;DHT22;10781;50.928;4.440;2023-02-03T09:33:29;11.10;99.90
21246;DHT22;10781;50.928;4.440;2023-02-03T09:35:56;11.20;99.90
21246;DHT22;10781;50.928;4.440;2023-02-03T09:38:23;11.10;99.90
21246;DHT22;10781;50.928;4.440;2023-02-03T09:40:55;11.20;99.90
21246;DHT22;10781;50.928;4.440;2023-02-03T09:46:50;11.30;99.90
21246;DHT22;10781;50.928;4.440;2023-02-03T09:49:32;11.30;99.90
21246;DHT22;10781;50.928;4.440;2023-02-03T09:52:07;11.30;99.90
21246;DHT22;10781;50.928;4.440;2023-02-03T09:57:21;11.20;99.90
21246;DHT22;10781;50.928;4.440;2023-02-03T09:59:48;11.20;99.90
21246;DHT22;10781;50.928;4.440;2023-02-03T10:02:36;11.30;99.90
21246;DHT22;10781;50.928;4.440;2023-02-03T10:17:18;11.60;99.90
21246;DHT22;10781;50.928;4.440;2023-02-03T10:22:27;11.60;99.90
21246;DHT22;10781;50.928;4.440;2023-02-03T10:25:02;11.90;99.90
21246;DHT22;10781;50.928;4.440;2023-02-03T10:27:28;11.90;99.90
21246;DHT22;10781;50.928;4.440;2023-02-03T10:30:08;11.80;99.90
21246;DHT22;10781;50.928;4.440;2023-02-03T10:32:36;11.90;99.90
21246;DHT22;10781;50.928;4.440;2023-02-03T10:35:04;11.80;99.90
21246;DHT22;10781;50.928;4.440;2023-02-03T10:37:34;11.80;99.90
21246;DHT22;10781;50.928;4.440;2023-02-03T10:40:02;11.80;99.90
21246;DHT22;10781;50.928;4.440;2023-02-03T10:42:31;11.80;99.90
21246;DHT22;10781;50.928;4.440;2023-02-03T10:45:18;11.80;99.90
21246;DHT22;10781;50.928;4.440;2023-02-03T10:47:50;11.80;99.90
21246;DHT22;10781;50.928;4.440;2023-02-03T10:50:23;11.70;99.90
21246;DHT22;10781;50.928;4.440;2023-02-03T10:56:09;11.60;99.90
21246;DHT22;10781;50.928;4.440;2023-02-03T10:58:37;11.60;99.90
21246;DHT22;10781;50.928;4.440;2023-02-03T11:01:15;11.50;99.90
21246;DHT22;10781;50.928;4.440;2023-02-03T11:03:43;11.50;99.90
21246;DHT22;10781;50.928;4.440;2023-02-03T11:06:13;11.60;99.90
21246;DHT22;10781;50.928;4.440;2023-02-03T11:08:44;11.80;99.90
21246;DHT22;10781;50.928;4.440;2023-02-03T11:11:30;11.80;99.90
21246;DHT22;10781;50.928;4.440;2023-02-03T11:16:27;11.80;99.90
21246;DHT22;10781;50.928;4.440;2023-02-03T11:18:59;11.80;99.90
21246;DHT22;10781;50.928;4.440;2023-02-03T11:26:38;11.80;99.90
21246;DHT22;10781;50.928;4.440;2023-02-03T11:29:05;11.80;99.90
21246;DHT22;10781;50.928;4.440;2023-02-03T11:31:34;11.70;99.90
21246;DHT22;10781;50.928;4.440;2023-02-03T11:34:15;11.80;99.90
21246;DHT22;10781;50.928;4.440;2023-02-03T11:36:41;11.70;99.90
21246;DHT22;10781;50.928;4.440;2023-02-03T11:41:43;11.60;99.90
21246;DHT22;10781;50.928;4.440;2023-02-03T11:44:28;11.70;99.90
21246;DHT22;10781;50.928;4.440;2023-02-03T11:47:07;11.60;99.90
21246;DHT22;10781;50.928;4.440;2023-02-03T11:49:55;11.60;99.90
21246;DHT22;10781;50.928;4.440;2023-02-03T11:52:54;11.60;99.90
21246;DHT22;10781;50.928;4.440;2023-02-03T11:55:27;11.70;99.90
21246;DHT22;10781;50.928;4.440;2023-02-03T12:04:01;11.90;99.90
21246;DHT22;10781;50.928;4.440;2023-02-03T12:09:18;11.90;99.90
21246;DHT22;10781;50.928;4.440;2023-02-03T12:15:38;12.10;99.90
21246;DHT22;10781;50.928;4.440;2023-02-03T12:20:51;12.20;99.90
21246;DHT22;10781;50.928;4.440;2023-02-03T12:26:19;12.10;99.90
21246;DHT22;10781;50.928;4.440;2023-02-03T12:29:13;12.10;99.90
21246;DHT22;10781;50.928;4.440;2023-02-03T12:34:38;12.10;99.90
21246;DHT22;10781;50.928;4.440;2023-02-03T12:40:57;12.10;99.90
21246;DHT22;10781;50.928;4.440;2023-02-03T12:43:46;12.40;99.90
21246;DHT22;10781;50.928;4.440;2023-02-03T12:46:29;12.30;99.90
21246;DHT22;10781;50.928;4.440;2023-02-03T12:51:42;12.50;99.90
21246;DHT22;10781;50.928;4.440;2023-02-03T12:56:54;12.60;99.90
21246;DHT22;10781;50.928;4.440;2023-02-03T12:59:24;12.80;99.90
21246;DHT22;10781;50.928;4.440;2023-02-03T13:02:01;12.70;99.90
21246;DHT22;10781;50.928;4.440;2023-02-03T13:04:37;12.60;99.90
21246;DHT22;10781;50.928;4.440;2023-02-03T13:07:11;12.60;99.90
21246;DHT22;10781;50.928;4.440;2023-02-03T13:10:22;12.80;99.90
21246;DHT22;10781;50.928;4.440;2023-02-03T13:12:50;12.80;99.90
21246;DHT22;10781;50.928;4.440;2023-02-03T13:17:49;13.00;99.90
21246;DHT22;10781;50.928;4.440;2023-02-03T13:20:23;12.80;99.90
21246;DHT22;10781;50.928;4.440;2023-02-03T13:22:49;12.80;99.90
21246;DHT22;10781;50.928;4.440;2023-02-03T13:25:31;12.70;99.90
21246;DHT22;10781;50.928;4.440;2023-02-03T13:30:39;12.70;99.90
21246;DHT22;10781;50.928;4.440;2023-02-03T13:44:38;12.80;99.90
21246;DHT22;10781;50.928;4.440;2023-02-03T13:47:05;13.00;99.90
21246;DHT22;10781;50.928;4.440;2023-02-03T13:49:34;13.00;99.90
21246;DHT22;10781;50.928;4.440;2023-02-03T13:52:00;12.80;99.90
21246;DHT22;10781;50.928;4.440;2023-02-03T13:54:33;12.80;99.90
21246;DHT22;10781;50.928;4.440;2023-02-03T13:57:03;12.80;99.90
21246;DHT22;10781;50.928;4.440;2023-02-03T13:59:42;12.80;99.90
21246;DHT22;10781;50.928;4.440;2023-02-03T14:07:33;12.80;99.90
21246;DHT22;10781;50.928;4.440;2023-02-03T14:12:57;12.80;99.90
21246;DHT22;10781;50.928;4.440;2023-02-03T14:25:47;12.90;99.90
21246;DHT22;10781;50.928;4.440;2023-02-03T14:28:20;13.10;99.90
21246;DHT22;10781;50.928;4.440;2023-02-03T14:31:19;12.80;99.90
21246;DHT22;10781;50.928;4.440;2023-02-03T14:34:00;12.70;99.90
21246;DHT22;10781;50.928;4.440;2023-02-03T14:36:38;12.70;99.90
21246;DHT22;10781;50.928;4.440;2023-02-03T14:44:48;12.70;99.90
21246;DHT22;10781;50.928;4.440;2023-02-03T14:58:19;12.70;99.90
21246;DHT22;10781;50.928;4.440;2023-02-03T15:00:46;12.60;99.90
21246;DHT22;10781;50.928;4.440;2023-02-03T15:03:16;12.60;99.90
21246;DHT22;10781;50.928;4.440;2023-02-03T15:06:02;12.50;99.90
21246;DHT22;10781;50.928;4.440;2023-02-03T15:10:55;12.50;99.90
21246;DHT22;10781;50.928;4.440;2023-02-03T15:13:29;12.70;99.90
21246;DHT22;10781;50.928;4.440;2023-02-03T15:15:58;12.80;99.90
21246;DHT22;10781;50.928;4.440;2023-02-03T15:18:29;12.70;99.90
21246;DHT22;10781;50.928;4.440;2023-02-03T15:20:56;12.60;99.90
21246;DHT22;10781;50.928;4.440;2023-02-03T15:23:44;12.50;99.90
21246;DHT22;10781;50.928;4.440;2023-02-03T15:26:18;12.40;99.90
21246;DHT22;10781;50.928;4.440;2023-02-03T15:29:02;12.40;99.90
21246;DHT22;10781;50.928;4.440;2023-02-03T15:32:05;12.60;99.90
21246;DHT22;10781;50.928;4.440;2023-02-03T15:34:36;12.60;99.90
21246;DHT22;10781;50.928;4.440;2023-02-03T15:37:13;12.70;99.90
21246;DHT22;10781;50.928;4.440;2023-02-03T15:42:54;12.60;99.90
21246;DHT22;10781;50.928;4.440;2023-02-03T15:45:32;12.60;99.90
21246;DHT22;10781;50.928;4.440;2023-02-03T15:50:38;12.50;99.90
21246;DHT22;10781;50.928;4.440;2023-02-03T15:53:13;12.40;99.90
21246;DHT22;10781;50.928;4.440;2023-02-03T15:55:45;12.30;99.90
21246;DHT22;10781;50.928;4.440;2023-02-03T15:58:26;12.30;99.90
21246;DHT22;10781;50.928;4.440;2023-02-03T16:00:55;12.30;99.90
21246;DHT22;10781;50.928;4.440;2023-02-03T16:03:47;12.30;99.90
21246;DHT22;10781;50.928;4.440;2023-02-03T16:06:37;12.40;99.90
21246;DHT22;10781;50.928;4.440;2023-02-03T16:09:22;12.50;99.90
21246;DHT22;10781;50.928;4.440;2023-02-03T16:11:49;12.70;99.90
21246;DHT22;10781;50.928;4.440;2023-02-03T16:14:31;12.70;99.90
21246;DHT22;10781;50.928;4.440;2023-02-03T16:16:58;12.50;99.90
21246;DHT22;10781;50.928;4.440;2023-02-03T16:19:26;12.40;99.90
21246;DHT22;10781;50.928;4.440;2023-02-03T16:21:57;12.30;99.90
21246;DHT22;10781;50.928;4.440;2023-02-03T16:24:41;12.00;99.90
21246;DHT22;10781;50.928;4.440;2023-02-03T16:29:50;12.00;99.90
21246;DHT22;10781;50.928;4.440;2023-02-03T16:32:35;11.90;99.90
21246;DHT22;10781;50.928;4.440;2023-02-03T16:35:19;11.80;99.90
21246;DHT22;10781;50.928;4.440;2023-02-03T16:38:05;11.90;99.90
21246;DHT22;10781;50.928;4.440;2023-02-03T16:40:50;11.90;99.90
21246;DHT22;10781;50.928;4.440;2023-02-03T16:43:34;11.90;99.90
21246;DHT22;10781;50.928;4.440;2023-02-03T16:46:18;11.90;99.90
21246;DHT22;10781;50.928;4.440;2023-02-03T16:49:02;11.90;99.90
21246;DHT22;10781;50.928;4.440;2023-02-03T16:51:46;12.00;99.90
21246;DHT22;10781;50.928;4.440;2023-02-03T16:54:13;12.00;99.90
21246;DHT22;10781;50.928;4.440;2023-02-03T16:56:39;12.00;99.90
21246;DHT22;10781;50.928;4.440;2023-02-03T16:59:05;11.90;99.90
21246;DHT22;10781;50.928;4.440;2023-02-03T17:01:31;11.80;99.90
21246;DHT22;10781;50.928;4.440;2023-02-03T17:03:56;11.70;99.90
21246;DHT22;10781;50.928;4.440;2023-02-03T17:06:22;11.60;99.90
21246;DHT22;10781;50.928;4.440;2023-02-03T17:08:48;11.60;99.90
21246;DHT22;10781;50.928;4.440;2023-02-03T17:11:19;11.80;99.90
21246;DHT22;10781;50.928;4.440;2023-02-03T17:13:45;11.80;99.90
21246;DHT22;10781;50.928;4.440;2023-02-03T17:16:18;11.90;99.90
21246;DHT22;10781;50.928;4.440;2023-02-03T17:18:44;11.80;99.90
21246;DHT22;10781;50.928;4.440;2023-02-03T17:21:20;11.80;99.90
21246;DHT22;10781;50.928;4.440;2023-02-03T17:23:49;11.70;99.90
21246;DHT22;10781;50.928;4.440;2023-02-03T17:26:15;11.70;99.90
21246;DHT22;10781;50.928;4.440;2023-02-03T17:28:41;11.60;99.90
21246;DHT22;10781;50.928;4.440;2023-02-03T17:31:13;11.50;99.90
21246;DHT22;10781;50.928;4.440;2023-02-03T17:33:39;11.50;99.90
21246;DHT22;10781;50.928;4.440;2023-02-03T17:36:08;11.50;99.90
21246;DHT22;10781;50.928;4.440;2023-02-03T17:38:42;11.50;99.90
21246;DHT22;10781;50.928;4.440;2023-02-03T17:41:10;11.60;99.90
21246;DHT22;10781;50.928;4.440;2023-02-03T17:43:37;11.40;99.90
21246;DHT22;10781;50.928;4.440;2023-02-03T17:46:03;11.40;99.90
21246;DHT22;10781;50.928;4.440;2023-02-03T17:48:29;11.50;99.90
21246;DHT22;10781;50.928;4.440;2023-02-03T17:51:10;11.50;99.90
21246;DHT22;10781;50.928;4.440;2023-02-03T17:53:37;11.40;99.90
21246;DHT22;10781;50.928;4.440;2023-02-03T17:56:15;11.40;99.90
21246;DHT22;10781;50.928;4.440;2023-02-03T17:58:41;11.30;99.90
21246;DHT22;10781;50.928;4.440;2023-02-03T18:01:14;11.40;99.90
21246;DHT22;10781;50.928;4.440;2023-02-03T18:03:46;11.40;99.90
21246;DHT22;10781;50.928;4.440;2023-02-03T18:06:13;11.40;99.90
21246;DHT22;10781;50.928;4.440;2023-02-03T18:08:40;11.40;99.90
21246;DHT22;10781;50.928;4.440;2023-02-03T18:11:06;11.40;99.90